createdAt,value
2023-04-16T00:00:55.862Z,3.00
2023-04-16T00:03:23.289Z,3.00
2023-04-16T00:05:50.645Z,3.10
2023-04-16T00:08:17.709Z,3.10
2023-04-16T00:10:44.809Z,2.90
2023-04-16T00:13:11.893Z,2.80
2023-04-16T00:15:38.849Z,2.80
2023-04-16T00:18:05.932Z,2.70
2023-04-16T00:20:32.950Z,2.70
2023-04-16T00:22:59.876Z,2.70
2023-04-16T00:25:26.974Z,2.60
2023-04-16T00:27:54.093Z,2.60
2023-04-16T00:30:21.059Z,2.60
2023-04-16T00:32:48.122Z,2.50
2023-04-16T00:35:15.429Z,2.50
2023-04-16T00:37:42.381Z,2.40
2023-04-16T00:40:09.622Z,2.40
2023-04-16T00:42:37.182Z,2.40
2023-04-16T00:45:05.742Z,2.40
2023-04-16T00:47:32.824Z,2.40
2023-04-16T00:49:59.880Z,2.40
2023-04-16T00:52:27.627Z,2.20
2023-04-16T00:54:54.649Z,2.20
2023-04-16T00:57:24.015Z,2.20
2023-04-16T00:59:52.015Z,2.10
2023-04-16T01:02:19.172Z,2.00
2023-04-16T01:04:46.213Z,2.10
2023-04-16T01:07:13.153Z,2.10
2023-04-16T01:09:40.245Z,2.10
2023-04-16T01:12:07.189Z,2.00
2023-04-16T01:14:36.573Z,2.10
2023-04-16T01:17:04.521Z,2.00
2023-04-16T01:19:31.651Z,1.90
2023-04-16T01:21:59.337Z,1.80
2023-04-16T01:24:26.784Z,1.70
2023-04-16T01:26:53.855Z,1.70
2023-04-16T01:29:20.854Z,1.70
2023-04-16T01:31:48.014Z,1.70
2023-04-16T01:34:15.024Z,1.70
2023-04-16T01:36:41.965Z,1.70
2023-04-16T01:39:14.447Z,1.80
2023-04-16T01:41:41.894Z,1.70
2023-04-16T01:44:08.913Z,1.60
2023-04-16T01:46:36.370Z,1.60
2023-04-16T01:49:04.885Z,1.60
2023-04-16T01:51:32.592Z,1.60
2023-04-16T01:53:59.647Z,1.60
2023-04-16T01:56:26.699Z,1.50
2023-04-16T01:58:53.911Z,1.50
2023-04-16T02:01:21.378Z,1.50
2023-04-16T02:03:48.855Z,1.50
2023-04-16T02:06:16.516Z,1.40
2023-04-16T02:08:43.530Z,1.40
2023-04-16T02:11:10.900Z,1.50
2023-04-16T02:13:37.854Z,1.50
2023-04-16T02:16:05.129Z,1.40
2023-04-16T02:18:32.136Z,1.50
2023-04-16T02:21:00.369Z,1.50
2023-04-16T02:23:27.488Z,1.40
2023-04-16T02:25:54.569Z,1.40
2023-04-16T02:28:21.710Z,1.40
2023-04-16T02:30:49.036Z,1.30
2023-04-16T02:33:16.173Z,1.30
2023-04-16T02:35:43.290Z,1.30
2023-04-16T02:38:10.344Z,1.30
2023-04-16T02:40:43.414Z,1.40
2023-04-16T02:43:14.919Z,1.40
2023-04-16T02:45:41.926Z,1.30
2023-04-16T02:48:09.789Z,1.30
2023-04-16T02:50:37.015Z,1.20
2023-04-16T02:53:04.429Z,1.10
2023-04-16T02:55:31.345Z,1.10
2023-04-16T02:57:58.486Z,1.10
2023-04-16T03:00:25.734Z,1.10
2023-04-16T03:02:52.825Z,1.10
2023-04-16T03:05:20.062Z,1.00
2023-04-16T03:07:47.071Z,1.10
2023-04-16T03:10:14.089Z,1.00
2023-04-16T03:12:41.212Z,1.00
2023-04-16T03:15:08.555Z,1.10
2023-04-16T03:17:35.813Z,1.10
2023-04-16T03:20:03.002Z,1.10
2023-04-16T03:22:29.956Z,1.10
2023-04-16T03:24:56.952Z,1.10
2023-04-16T03:27:24.070Z,1.10
2023-04-16T03:29:51.186Z,1.10
2023-04-16T03:32:18.428Z,1.00
2023-04-16T03:34:45.741Z,0.90
2023-04-16T03:37:12.709Z,0.90
2023-04-16T03:39:39.756Z,0.80
2023-04-16T03:42:07.009Z,0.80
2023-04-16T03:44:34.067Z,0.80
2023-04-16T03:47:01.528Z,0.90
2023-04-16T03:49:28.546Z,0.80
2023-04-16T03:51:55.596Z,0.90
2023-04-16T03:54:23.084Z,0.90
2023-04-16T03:56:50.297Z,0.80
2023-04-16T03:59:17.230Z,0.80
2023-04-16T04:01:44.323Z,0.80
2023-04-16T04:04:11.702Z,0.80
2023-04-16T04:06:38.748Z,0.80
2023-04-16T04:09:06.203Z,0.80
2023-04-16T04:11:33.526Z,0.80
2023-04-16T04:14:00.561Z,0.80
2023-04-16T04:16:27.525Z,0.80
2023-04-16T04:18:55.829Z,0.90
2023-04-16T04:21:22.763Z,0.80
2023-04-16T04:23:49.823Z,0.90
2023-04-16T04:26:17.352Z,0.90
2023-04-16T04:28:44.465Z,0.90
2023-04-16T04:31:11.541Z,1.00
2023-04-16T04:33:38.669Z,1.00
2023-04-16T04:36:06.068Z,1.10
2023-04-16T04:38:33.066Z,1.00
2023-04-16T04:41:00.313Z,1.10
2023-04-16T04:43:27.417Z,1.10
2023-04-16T04:45:54.466Z,1.10
2023-04-16T04:48:26.726Z,1.10
2023-04-16T04:50:54.031Z,1.10
2023-04-16T04:53:21.100Z,1.10
2023-04-16T04:55:52.298Z,1.10
2023-04-16T04:58:21.370Z,1.20
2023-04-16T05:00:48.390Z,1.20
2023-04-16T05:03:21.192Z,1.20
2023-04-16T05:05:48.318Z,1.20
2023-04-16T05:08:15.280Z,1.30
2023-04-16T05:10:42.436Z,1.30
2023-04-16T05:13:09.388Z,1.30
2023-04-16T05:15:38.840Z,1.40
2023-04-16T05:18:06.698Z,1.30
2023-04-16T05:20:33.662Z,1.40
2023-04-16T05:23:00.596Z,1.50
2023-04-16T05:25:27.802Z,1.60
2023-04-16T05:28:02.387Z,1.80
2023-04-16T05:30:29.605Z,1.70
2023-04-16T05:32:56.746Z,1.80
2023-04-16T05:35:25.159Z,1.90
2023-04-16T05:37:52.595Z,1.90
2023-04-16T05:40:19.734Z,2.00
2023-04-16T05:42:46.848Z,2.10
2023-04-16T05:45:13.988Z,2.20
2023-04-16T05:47:41.023Z,2.30
2023-04-16T05:50:08.272Z,2.30
2023-04-16T05:52:35.369Z,2.40
2023-04-16T05:55:02.334Z,2.40
2023-04-16T05:57:30.752Z,2.60
2023-04-16T05:59:57.855Z,2.70
2023-04-16T06:02:25.160Z,2.80
2023-04-16T06:04:52.265Z,2.90
2023-04-16T06:07:19.323Z,3.10
2023-04-16T06:09:46.342Z,3.20
2023-04-16T06:12:13.329Z,3.40
2023-04-16T06:14:40.494Z,3.30
2023-04-16T06:17:07.438Z,3.40
2023-04-16T06:19:34.392Z,3.60
2023-04-16T06:22:01.498Z,3.70
2023-04-16T06:24:28.581Z,3.80
2023-04-16T06:26:55.629Z,4.30
2023-04-16T06:29:28.023Z,4.50
2023-04-16T06:32:04.818Z,4.50
2023-04-16T06:34:32.135Z,4.60
2023-04-16T06:36:59.072Z,5.00
2023-04-16T06:39:26.124Z,5.10
2023-04-16T06:41:53.212Z,5.30
2023-04-16T06:44:20.231Z,5.20
2023-04-16T06:46:47.229Z,5.70
2023-04-16T06:49:14.371Z,5.40
2023-04-16T06:51:42.318Z,5.10
2023-04-16T06:54:09.279Z,5.60
2023-04-16T06:56:37.559Z,5.20
2023-04-16T06:59:04.996Z,5.90
2023-04-16T07:01:31.983Z,6.40
2023-04-16T07:03:59.376Z,6.40
2023-04-16T07:06:27.288Z,6.70
2023-04-16T07:08:54.399Z,6.90
2023-04-16T07:11:21.685Z,6.90
2023-04-16T07:13:48.936Z,6.60
2023-04-16T07:16:15.985Z,6.60
2023-04-16T07:18:43.360Z,6.70
2023-04-16T07:21:10.750Z,6.70
2023-04-16T07:23:37.778Z,6.80
2023-04-16T07:26:04.868Z,7.20
2023-04-16T07:28:31.817Z,7.10
2023-04-16T07:30:58.862Z,7.20
2023-04-16T07:33:26.343Z,6.60
2023-04-16T07:35:53.361Z,6.50
2023-04-16T07:38:20.720Z,6.60
2023-04-16T07:40:47.990Z,7.00
2023-04-16T07:43:16.512Z,6.80
2023-04-16T07:45:43.477Z,6.70
2023-04-16T07:48:11.203Z,7.20
2023-04-16T07:50:38.209Z,7.30
2023-04-16T07:53:07.717Z,7.40
2023-04-16T07:55:35.509Z,7.90
2023-04-16T07:58:02.977Z,8.30
2023-04-16T08:00:30.333Z,8.00
2023-04-16T08:02:57.861Z,7.60
2023-04-16T08:05:27.385Z,7.40
2023-04-16T08:07:54.593Z,7.30
2023-04-16T08:10:21.945Z,7.70
2023-04-16T08:12:49.091Z,8.00
2023-04-16T08:15:16.181Z,7.50
2023-04-16T08:17:43.503Z,7.40
2023-04-16T08:20:13.032Z,8.30
2023-04-16T08:22:42.329Z,9.10
2023-04-16T08:25:09.926Z,8.70
2023-04-16T08:27:37.160Z,8.70
2023-04-16T08:30:04.843Z,8.30
2023-04-16T08:32:32.052Z,7.80
2023-04-16T08:34:59.686Z,8.20
2023-04-16T08:37:27.033Z,8.80
2023-04-16T08:39:54.332Z,8.80
2023-04-16T08:42:44.272Z,8.70
2023-04-16T08:45:18.865Z,8.50
2023-04-16T08:47:51.620Z,8.50
2023-04-16T08:50:24.277Z,9.40
2023-04-16T08:53:00.952Z,8.80
2023-04-16T08:55:47.789Z,8.90
2023-04-16T08:58:18.648Z,9.80
2023-04-16T09:00:46.579Z,9.80
2023-04-16T09:03:14.023Z,9.60
2023-04-16T09:05:43.303Z,10.00
2023-04-16T09:08:11.777Z,9.60
2023-04-16T09:10:38.836Z,10.10
2023-04-16T09:13:05.923Z,10.80
2023-04-16T09:15:35.134Z,10.80
2023-04-16T09:18:02.415Z,10.80
2023-04-16T09:20:29.581Z,10.90
2023-04-16T09:22:57.559Z,10.80
2023-04-16T09:25:26.120Z,11.00
2023-04-16T09:27:53.288Z,10.60
2023-04-16T09:30:24.073Z,10.60
2023-04-16T09:32:53.034Z,10.80
2023-04-16T09:35:20.803Z,10.60
2023-04-16T09:37:58.325Z,10.30
2023-04-16T09:40:27.402Z,10.30
2023-04-16T09:42:57.852Z,11.20
2023-04-16T09:45:25.020Z,10.30
2023-04-16T09:47:52.041Z,11.10
2023-04-16T09:50:20.687Z,11.60
2023-04-16T09:52:51.756Z,11.70
2023-04-16T09:55:24.128Z,11.60
2023-04-16T09:58:00.192Z,11.70
2023-04-16T10:00:28.808Z,11.70
2023-04-16T10:03:08.243Z,11.70
2023-04-16T10:05:35.403Z,11.50
2023-04-16T10:08:02.495Z,12.00
2023-04-16T10:10:30.792Z,12.10
2023-04-16T10:12:58.197Z,12.40
2023-04-16T10:15:25.818Z,12.00
2023-04-16T10:17:54.326Z,12.40
2023-04-16T10:20:22.889Z,11.60
2023-04-16T10:22:50.327Z,12.30
2023-04-16T10:25:18.116Z,12.50
2023-04-16T10:27:45.993Z,12.70
2023-04-16T10:30:16.200Z,13.30
2023-04-16T10:32:44.913Z,13.20
2023-04-16T10:35:16.898Z,13.70
2023-04-16T10:37:45.320Z,13.10
2023-04-16T10:40:23.879Z,12.70
2023-04-16T10:43:01.726Z,13.10
2023-04-16T10:45:37.535Z,13.50
2023-04-16T10:48:10.165Z,13.50
2023-04-16T10:50:37.740Z,12.20
2023-04-16T10:53:27.803Z,13.50
2023-04-16T10:56:18.160Z,13.40
2023-04-16T10:58:45.231Z,12.40
2023-04-16T11:01:14.040Z,13.10
2023-04-16T11:03:48.316Z,13.70
2023-04-16T11:06:17.663Z,12.80
2023-04-16T11:08:54.524Z,12.70
2023-04-16T11:11:23.978Z,13.30
2023-04-16T11:13:56.460Z,13.40
2023-04-16T11:16:26.404Z,13.40
2023-04-16T11:18:55.520Z,13.60
2023-04-16T11:21:24.417Z,13.70
2023-04-16T11:23:55.553Z,13.60
2023-04-16T11:26:28.996Z,13.80
2023-04-16T11:28:57.378Z,13.90
2023-04-16T11:31:24.642Z,14.30
2023-04-16T11:33:51.877Z,13.70
2023-04-16T11:36:18.996Z,14.10
2023-04-16T11:38:47.636Z,13.90
2023-04-16T11:41:24.507Z,13.90
2023-04-16T11:43:51.537Z,14.00
2023-04-16T11:46:27.416Z,13.70
2023-04-16T11:48:56.296Z,13.50
2023-04-16T11:51:23.824Z,13.10
2023-04-16T11:53:54.683Z,13.00
2023-04-16T11:56:31.367Z,13.40
2023-04-16T11:59:16.727Z,13.70
2023-04-16T12:01:51.392Z,12.70
2023-04-16T12:04:25.137Z,13.00
2023-04-16T12:07:16.660Z,12.90
2023-04-16T12:09:44.490Z,13.00
2023-04-16T12:12:32.288Z,13.00
2023-04-16T12:15:00.345Z,13.00
2023-04-16T12:17:27.408Z,13.20
2023-04-16T12:19:59.342Z,13.50
2023-04-16T12:22:37.214Z,13.70
2023-04-16T12:25:11.525Z,14.10
2023-04-16T12:27:53.382Z,13.80
2023-04-16T12:30:22.989Z,13.90
2023-04-16T12:33:14.146Z,14.50
2023-04-16T12:35:43.553Z,14.40
2023-04-16T12:38:10.892Z,15.00
2023-04-16T12:40:38.554Z,14.60
2023-04-16T12:43:05.742Z,14.30
2023-04-16T12:45:32.790Z,14.40
2023-04-16T12:47:59.816Z,15.10
2023-04-16T12:50:28.726Z,15.30
2023-04-16T12:52:59.790Z,14.80
2023-04-16T12:55:26.816Z,14.50
2023-04-16T12:57:54.518Z,14.30
2023-04-16T13:00:21.859Z,15.00
2023-04-16T13:02:48.932Z,14.70
2023-04-16T13:05:18.447Z,14.00
2023-04-16T13:07:45.512Z,14.30
2023-04-16T13:10:12.968Z,15.40
2023-04-16T13:12:40.240Z,14.60
2023-04-16T13:15:07.817Z,14.70
2023-04-16T13:17:34.824Z,14.10
2023-04-16T13:20:01.992Z,14.30
2023-04-16T13:22:28.992Z,15.00
2023-04-16T13:24:56.038Z,14.50
2023-04-16T13:27:23.221Z,14.70
2023-04-16T13:29:50.317Z,14.20
2023-04-16T13:32:18.981Z,14.90
2023-04-16T13:34:46.228Z,14.20
2023-04-16T13:37:13.275Z,14.30
2023-04-16T13:39:40.329Z,14.60
2023-04-16T13:42:07.565Z,14.30
2023-04-16T13:44:34.618Z,14.20
2023-04-16T13:47:01.758Z,13.60
2023-04-16T13:49:29.098Z,13.00
2023-04-16T13:51:56.092Z,13.40
2023-04-16T13:54:23.236Z,13.20
2023-04-16T13:56:51.290Z,13.50
2023-04-16T13:59:18.805Z,13.90
2023-04-16T14:01:45.901Z,13.80
2023-04-16T14:04:13.095Z,14.30
2023-04-16T14:06:40.134Z,13.20
2023-04-16T14:09:07.246Z,12.60
2023-04-16T14:11:34.288Z,13.20
2023-04-16T14:14:01.261Z,13.30
2023-04-16T14:16:28.341Z,12.70
2023-04-16T14:18:55.514Z,13.10
2023-04-16T14:21:22.524Z,13.10
2023-04-16T14:23:49.922Z,13.10
2023-04-16T14:26:16.962Z,12.70
2023-04-16T14:28:44.171Z,12.40
2023-04-16T14:31:11.148Z,12.20
2023-04-16T14:33:38.215Z,12.10
2023-04-16T14:36:05.775Z,12.60
2023-04-16T14:38:32.712Z,12.00
2023-04-16T14:41:00.727Z,11.90
2023-04-16T14:43:27.731Z,12.10
2023-04-16T14:45:54.800Z,12.30
2023-04-16T14:48:22.296Z,12.70
2023-04-16T14:50:49.474Z,13.00
2023-04-16T14:53:16.900Z,12.60
2023-04-16T14:55:44.260Z,12.10
2023-04-16T14:58:11.282Z,11.80
2023-04-16T15:00:38.351Z,12.10
2023-04-16T15:03:06.171Z,12.40
2023-04-16T15:05:34.022Z,12.30
2023-04-16T15:08:01.239Z,12.70
2023-04-16T15:10:30.018Z,12.70
2023-04-16T15:12:57.114Z,12.50
2023-04-16T15:15:24.120Z,11.90
2023-04-16T15:17:51.983Z,11.80
2023-04-16T15:20:19.064Z,11.70
2023-04-16T15:22:46.316Z,11.90
2023-04-16T15:25:13.427Z,11.80
2023-04-16T15:27:40.430Z,12.10
2023-04-16T15:30:08.256Z,11.80
2023-04-16T15:32:35.394Z,11.70
2023-04-16T15:35:03.640Z,11.50
2023-04-16T15:37:31.199Z,11.50
2023-04-16T15:39:58.212Z,11.40
2023-04-16T15:42:25.462Z,11.30
2023-04-16T15:44:52.529Z,11.30
2023-04-16T15:47:19.550Z,11.10
2023-04-16T15:49:46.857Z,11.00
2023-04-16T15:52:13.881Z,10.90
2023-04-16T15:54:41.150Z,11.30
2023-04-16T15:57:08.184Z,11.30
2023-04-16T15:59:35.143Z,11.30
2023-04-16T16:02:02.768Z,11.40
2023-04-16T16:04:30.309Z,11.20
2023-04-16T16:06:57.572Z,11.20
2023-04-16T16:09:28.062Z,11.40
2023-04-16T16:11:55.834Z,11.20
2023-04-16T16:14:22.996Z,11.10
2023-04-16T16:16:49.993Z,10.80
2023-04-16T16:19:17.791Z,10.60
2023-04-16T16:21:44.762Z,10.70
2023-04-16T16:24:11.950Z,10.70
2023-04-16T16:26:38.902Z,10.70
2023-04-16T16:29:06.138Z,10.50
2023-04-16T16:31:35.989Z,10.40
2023-04-16T16:34:03.040Z,10.40
2023-04-16T16:36:30.058Z,10.30
2023-04-16T16:38:57.504Z,10.40
2023-04-16T16:41:24.426Z,10.40
2023-04-16T16:43:51.483Z,10.40
2023-04-16T16:46:18.588Z,10.50
2023-04-16T16:48:45.636Z,10.20
2023-04-16T16:51:12.632Z,9.90
2023-04-16T16:56:20.498Z,9.80
2023-04-16T16:58:50.292Z,9.90
2023-04-16T17:01:18.221Z,10.00
2023-04-16T17:03:45.313Z,9.80
2023-04-16T17:06:14.571Z,9.70
2023-04-16T17:08:41.977Z,9.70
2023-04-16T17:11:09.094Z,9.70
2023-04-16T17:13:36.198Z,9.80
2023-04-16T17:16:03.477Z,9.60
2023-04-16T17:18:30.533Z,9.40
2023-04-16T17:20:57.692Z,9.40
2023-04-16T17:23:24.845Z,9.40
2023-04-16T17:25:54.593Z,9.40
2023-04-16T17:28:21.616Z,9.40
2023-04-16T17:30:54.106Z,9.40
2023-04-16T17:33:23.832Z,9.00
2023-04-16T17:35:50.891Z,8.90
2023-04-16T17:38:17.846Z,8.90
2023-04-16T17:40:49.888Z,8.90
2023-04-16T17:43:16.845Z,8.90
2023-04-16T17:45:43.907Z,8.70
2023-04-16T17:48:11.136Z,8.60
2023-04-16T17:50:40.599Z,8.80
2023-04-16T17:53:07.736Z,8.70
2023-04-16T17:55:34.863Z,8.50
2023-04-16T17:58:04.260Z,8.40
2023-04-16T18:00:31.382Z,8.30
2023-04-16T18:02:59.988Z,8.20
2023-04-16T18:05:27.718Z,8.20
2023-04-16T18:07:55.684Z,8.20
2023-04-16T18:10:22.726Z,8.10
2023-04-16T18:12:49.732Z,8.20
2023-04-16T18:15:16.786Z,7.90
2023-04-16T18:17:46.262Z,7.90
2023-04-16T18:20:16.860Z,8.00
2023-04-16T18:22:43.847Z,8.00
2023-04-16T18:25:10.915Z,8.00
2023-04-16T18:27:39.387Z,7.90
2023-04-16T18:30:07.009Z,7.90
2023-04-16T18:32:35.333Z,7.80
2023-04-16T18:35:02.526Z,7.80
2023-04-16T18:37:29.910Z,7.80
2023-04-16T18:39:59.614Z,7.90
2023-04-16T18:42:29.676Z,7.70
2023-04-16T18:44:56.971Z,7.70
2023-04-16T18:47:24.059Z,7.60
2023-04-16T18:49:51.082Z,7.60
2023-04-16T18:52:18.197Z,7.60
2023-04-16T18:54:45.497Z,7.60
2023-04-16T18:57:12.492Z,7.40
2023-04-16T18:59:39.483Z,7.40
2023-04-16T19:02:07.374Z,7.40
2023-04-16T19:04:34.510Z,7.40
2023-04-16T19:07:01.539Z,7.30
2023-04-16T19:09:28.606Z,7.30
2023-04-16T19:11:56.098Z,7.30
2023-04-16T19:14:23.101Z,7.30
2023-04-16T19:16:52.946Z,7.10
2023-04-16T19:19:19.995Z,7.10
2023-04-16T19:21:50.068Z,7.00
2023-04-16T19:24:17.125Z,7.10
2023-04-16T19:26:44.112Z,7.00
2023-04-16T19:29:13.880Z,7.00
2023-04-16T19:31:41.227Z,6.90
2023-04-16T19:34:08.340Z,7.00
2023-04-16T19:36:46.419Z,6.90
2023-04-16T19:39:13.394Z,6.90
2023-04-16T19:41:40.525Z,6.70
2023-04-16T19:44:09.902Z,6.70
2023-04-16T19:46:37.113Z,6.60
2023-04-16T19:49:04.558Z,6.60
2023-04-16T19:51:34.567Z,6.60
2023-04-16T19:54:03.187Z,6.50
2023-04-16T19:56:30.669Z,6.50
2023-04-16T19:58:58.049Z,6.40
2023-04-16T20:01:25.188Z,6.40
2023-04-16T20:03:52.145Z,6.40
2023-04-16T20:06:19.185Z,6.30
2023-04-16T20:08:46.176Z,6.40
2023-04-16T20:11:13.120Z,6.40
2023-04-16T20:13:40.151Z,6.50
2023-04-16T20:16:09.295Z,6.50
2023-04-16T20:18:41.509Z,6.40
2023-04-16T20:21:09.269Z,6.30
2023-04-16T20:23:36.186Z,6.20
2023-04-16T20:26:04.585Z,6.20
2023-04-16T20:28:31.532Z,6.20
2023-04-16T20:30:58.674Z,6.20
2023-04-16T20:33:25.699Z,6.20
2023-04-16T20:35:52.696Z,6.10
2023-04-16T20:38:23.791Z,5.90
2023-04-16T20:41:06.209Z,5.80
2023-04-16T20:43:38.724Z,5.80
2023-04-16T20:46:06.182Z,5.70
2023-04-16T20:48:33.357Z,5.70
2023-04-16T20:51:02.888Z,5.60
2023-04-16T20:53:31.542Z,5.60
2023-04-16T20:56:00.781Z,5.60
2023-04-16T20:58:27.761Z,5.40
2023-04-16T21:00:55.834Z,5.40
2023-04-16T21:03:23.491Z,5.30
2023-04-16T21:05:55.569Z,5.30
2023-04-16T21:08:23.185Z,5.30
2023-04-16T21:10:51.427Z,5.30
2023-04-16T21:13:18.853Z,5.10
2023-04-16T21:15:46.324Z,5.20
2023-04-16T21:18:13.453Z,5.10
2023-04-16T21:20:40.554Z,4.90
2023-04-16T21:23:07.679Z,4.90
2023-04-16T21:25:34.790Z,4.90
2023-04-16T21:28:01.739Z,4.90
2023-04-16T21:30:28.812Z,4.90
2023-04-16T21:32:56.088Z,4.90
2023-04-16T21:35:23.188Z,4.80
2023-04-16T21:37:50.221Z,4.80
2023-04-16T21:40:17.373Z,4.70
2023-04-16T21:42:44.664Z,4.50
2023-04-16T21:45:11.873Z,4.40
2023-04-16T21:47:39.088Z,4.30
2023-04-16T21:50:06.519Z,4.10
2023-04-16T21:52:33.647Z,4.10
2023-04-16T21:55:00.915Z,4.10
2023-04-16T21:57:28.016Z,4.10
2023-04-16T21:59:55.108Z,4.00
2023-04-16T22:02:22.355Z,4.00
2023-04-16T22:04:49.444Z,4.00
2023-04-16T22:07:17.003Z,4.00
2023-04-16T22:09:44.216Z,4.20
2023-04-16T22:12:11.249Z,4.20
2023-04-16T22:14:44.055Z,4.10
2023-04-16T22:17:17.267Z,4.10
2023-04-16T22:19:44.685Z,4.10
2023-04-16T22:22:11.768Z,4.10
2023-04-16T22:24:38.843Z,4.10
2023-04-16T22:27:05.856Z,4.10
2023-04-16T22:29:32.763Z,4.00
2023-04-16T22:32:00.933Z,3.90
2023-04-16T22:34:27.929Z,3.90
2023-04-16T22:36:54.861Z,3.80
2023-04-16T22:39:21.999Z,3.80
2023-04-16T22:41:48.957Z,3.90
2023-04-16T22:44:15.879Z,3.90
2023-04-16T22:46:44.076Z,3.90
2023-04-16T22:49:11.191Z,3.90
2023-04-16T22:51:38.355Z,3.80
2023-04-16T22:54:05.655Z,3.80
2023-04-16T22:56:32.628Z,3.70
2023-04-16T22:58:59.531Z,3.70
2023-04-16T23:01:27.438Z,3.70
2023-04-16T23:03:54.439Z,3.60
2023-04-16T23:06:22.112Z,3.60
2023-04-16T23:08:49.207Z,3.60
2023-04-16T23:11:16.388Z,3.70
2023-04-16T23:13:43.409Z,3.50
2023-04-16T23:16:10.605Z,3.50
2023-04-16T23:18:37.554Z,3.40
2023-04-16T23:21:04.653Z,3.40
2023-04-16T23:23:32.053Z,3.30
2023-04-16T23:25:59.051Z,3.40
2023-04-16T23:28:26.008Z,3.30
2023-04-16T23:30:53.134Z,3.30
2023-04-16T23:33:20.246Z,3.20
2023-04-16T23:35:48.045Z,3.20
2023-04-16T23:38:15.199Z,3.20
2023-04-16T23:40:42.321Z,3.10
2023-04-16T23:43:09.388Z,3.10
2023-04-16T23:45:36.564Z,3.10
2023-04-16T23:48:03.773Z,3.00
2023-04-16T23:50:30.823Z,3.00
2023-04-16T23:52:57.869Z,3.00
2023-04-16T23:55:25.232Z,3.00
2023-04-16T23:57:52.190Z,3.00
